Time;durP1;ratioP1;P1;durP2;ratioP2;P2;SDS_P1;SDS_P2;PMS_P1;PMS_P2;Temp;Humidity;BMP_temperature;BMP_pressure;BME280_temperature;BME280_humidity;BME280_pressure;Samples;Min_cycle;Max_cycle;Signal;HPM_P1;HPM_P2
2023/06/09 00:02:18;;;;;;;9.00;8.10;;;17.40;99.90;;;;;;5052917;28;20249;-63
2023/06/09 00:04:48;;;;;;;8.38;7.30;;;17.30;99.90;;;;;;5051943;28;20209;-63
2023/06/09 00:07:16;;;;;;;8.98;7.97;;;17.30;99.90;;;;;;5058254;28;20225;-63
2023/06/09 00:09:44;;;;;;;8.55;7.75;;;17.30;99.90;;;;;;5085439;28;20204;-63
2023/06/09 00:12:12;;;;;;;7.93;7.13;;;17.20;99.90;;;;;;5086518;28;20262;-64
2023/06/09 00:14:41;;;;;;;9.27;7.38;;;17.20;99.90;;;;;;5092776;28;20210;-64
2023/06/09 00:17:09;;;;;;;8.07;7.30;;;17.20;99.90;;;;;;5086198;28;20228;-63
2023/06/09 00:19:37;;;;;;;8.77;7.90;;;17.10;99.90;;;;;;5089799;28;20625;-63
2023/06/09 00:22:13;;;;;;;8.70;8.00;;;17.10;99.90;;;;;;5093015;28;20219;-63
2023/06/09 00:24:41;;;;;;;8.93;8.13;;;17.10;99.90;;;;;;5092520;28;20207;-63
2023/06/09 00:27:10;;;;;;;10.13;8.32;;;17.10;99.90;;;;;;5089784;28;20327;-63
2023/06/09 00:29:38;;;;;;;8.82;8.00;;;17.10;99.90;;;;;;5081230;28;20679;-63
2023/06/09 00:32:08;;;;;;;9.05;8.20;;;17.00;99.90;;;;;;5092638;28;20282;-64
2023/06/09 00:34:36;;;;;;;9.35;8.18;;;17.00;99.90;;;;;;5092556;28;20204;-64
2023/06/09 00:37:05;;;;;;;10.38;8.25;;;17.00;99.90;;;;;;5092711;28;20306;-63
2023/06/09 00:39:34;;;;;;;13.60;9.05;;;17.00;99.90;;;;;;5092711;28;20302;-64
2023/06/09 00:42:02;;;;;;;8.90;7.88;;;16.90;99.90;;;;;;5092438;28;20224;-63
2023/06/09 00:44:30;;;;;;;9.13;8.20;;;16.90;99.90;;;;;;5076166;28;20644;-65
2023/06/09 00:46:58;;;;;;;9.35;8.45;;;16.90;99.90;;;;;;5092293;28;20335;-65
2023/06/09 00:49:26;;;;;;;11.20;8.57;;;16.90;99.90;;;;;;5092610;28;20206;-63
2023/06/09 00:51:54;;;;;;;9.43;8.63;;;16.90;99.90;;;;;;5092164;28;20278;-64
2023/06/09 00:54:21;;;;;;;12.35;9.43;;;16.90;99.90;;;;;;5092279;28;20246;-65
2023/06/09 00:56:51;;;;;;;10.73;8.35;;;16.90;99.90;;;;;;5092200;28;20246;-63
2023/06/09 00:59:19;;;;;;;10.52;9.52;;;16.80;99.90;;;;;;5092074;28;20731;-64
2023/06/09 01:01:47;;;;;;;9.07;8.27;;;16.80;99.90;;;;;;5092408;28;20289;-63
2023/06/09 01:04:15;;;;;;;8.68;7.97;;;16.80;99.90;;;;;;5091968;28;20296;-63
2023/06/09 01:06:47;;;;;;;10.88;8.68;;;16.70;99.90;;;;;;5091926;28;20235;-64
2023/06/09 01:09:19;;;;;;;9.90;8.93;;;16.70;99.90;;;;;;5091945;28;20224;-64
2023/06/09 01:11:55;;;;;;;10.30;8.27;;;16.70;99.90;;;;;;5092134;28;20305;-65
2023/06/09 01:14:24;;;;;;;9.50;8.57;;;16.70;99.90;;;;;;5092013;28;20307;-65
2023/06/09 01:16:59;;;;;;;8.70;8.05;;;16.70;99.90;;;;;;5091761;28;20212;-63
2023/06/09 01:19:31;;;;;;;8.88;8.07;;;16.70;99.90;;;;;;5091922;28;20203;-64
2023/06/09 01:22:01;;;;;;;8.90;7.78;;;16.60;99.90;;;;;;5091757;28;20247;-65
2023/06/09 01:24:32;;;;;;;8.48;7.88;;;16.60;99.90;;;;;;5092012;28;20794;-64
2023/06/09 01:27:02;;;;;;;9.02;8.32;;;16.60;99.90;;;;;;5091743;28;20211;-63
2023/06/09 01:29:30;;;;;;;9.20;8.20;;;16.60;99.90;;;;;;5091598;28;20255;-62
2023/06/09 01:31:58;;;;;;;8.32;7.55;;;16.60;99.90;;;;;;5091774;28;20270;-64
2023/06/09 01:34:27;;;;;;;13.48;8.30;;;16.60;99.90;;;;;;5091541;28;20199;-65
2023/06/09 01:36:54;;;;;;;8.60;7.85;;;16.60;99.90;;;;;;5091816;28;20299;-63
2023/06/09 01:39:22;;;;;;;9.77;8.48;;;16.60;99.90;;;;;;5091882;28;20231;-64
2023/06/09 01:41:50;;;;;;;8.65;7.95;;;16.60;99.90;;;;;;5091720;28;20273;-64
2023/06/09 01:44:19;;;;;;;9.48;8.60;;;16.60;99.90;;;;;;5072873;28;20759;-64
2023/06/09 01:46:47;;;;;;;8.90;7.63;;;16.60;99.90;;;;;;5071285;28;20315;-64
2023/06/09 01:49:32;;;;;;;8.82;8.02;;;16.60;99.90;;;;;;5071314;28;20315;-64
2023/06/09 01:52:02;;;;;;;16.05;7.78;;;16.50;99.90;;;;;;5071297;28;20232;-65
2023/06/09 01:54:33;;;;;;;7.75;6.80;;;16.50;99.90;;;;;;5071321;28;20224;-62
2023/06/09 01:57:05;;;;;;;8.30;7.50;;;16.50;99.90;;;;;;5070643;28;20224;-64
2023/06/09 01:59:37;;;;;;;8.82;8.05;;;16.50;99.90;;;;;;5071114;28;20212;-64
2023/06/09 02:02:05;;;;;;;9.50;8.68;;;16.50;99.90;;;;;;5071387;28;20313;-64
2023/06/09 02:04:33;;;;;;;8.40;7.60;;;16.40;99.90;;;;;;5071069;28;20663;-64
2023/06/09 02:07:04;;;;;;;9.18;8.27;;;16.40;99.90;;;;;;5071443;28;20236;-63
2023/06/09 02:09:32;;;;;;;8.30;7.50;;;16.40;99.90;;;;;;5071120;28;20257;-64
2023/06/09 02:12:00;;;;;;;8.38;7.68;;;16.30;99.90;;;;;;5070716;28;20648;-63
2023/06/09 02:14:33;;;;;;;8.48;7.68;;;16.30;99.90;;;;;;5071200;28;20209;-65
2023/06/09 02:17:02;;;;;;;8.35;7.57;;;16.30;99.90;;;;;;5071122;28;20673;-64
2023/06/09 02:19:30;;;;;;;8.40;7.70;;;16.20;99.90;;;;;;5071191;28;20209;-64
2023/06/09 02:21:58;;;;;;;7.90;7.10;;;16.20;99.90;;;;;;5071089;28;20247;-63
2023/06/09 02:24:28;;;;;;;8.23;7.38;;;16.10;99.90;;;;;;5070780;28;20243;-63
2023/06/09 02:26:56;;;;;;;9.27;8.38;;;16.10;99.90;;;;;;5070908;28;20292;-64
2023/06/09 02:29:24;;;;;;;8.65;7.55;;;16.10;99.90;;;;;;5071146;28;20279;-64
2023/06/09 02:31:54;;;;;;;9.13;8.25;;;16.10;99.90;;;;;;5071134;28;20229;-64
2023/06/09 02:34:23;;;;;;;8.15;7.45;;;16.00;99.90;;;;;;5070789;28;20676;-64
2023/06/09 02:36:52;;;;;;;8.38;7.57;;;16.00;99.90;;;;;;5073332;28;20478;-64
2023/06/09 02:39:20;;;;;;;11.73;8.05;;;16.00;99.90;;;;;;5085995;28;20261;-63
2023/06/09 02:41:48;;;;;;;9.10;8.23;;;16.00;99.90;;;;;;5082864;28;20303;-64
2023/06/09 02:44:16;;;;;;;9.02;7.78;;;15.90;99.90;;;;;;5084618;28;20235;-63
2023/06/09 02:46:44;;;;;;;9.65;8.73;;;15.90;99.90;;;;;;5074318;28;20204;-64
2023/06/09 02:49:13;;;;;;;9.60;8.30;;;15.90;99.90;;;;;;5074217;28;20597;-64
2023/06/09 02:51:42;;;;;;;9.40;8.18;;;15.90;99.90;;;;;;5074082;28;20312;-63
2023/06/09 02:54:10;;;;;;;8.55;7.85;;;15.90;99.90;;;;;;5074305;28;20300;-63
2023/06/09 02:56:38;;;;;;;8.75;7.90;;;15.90;99.90;;;;;;5074105;28;20292;-64
2023/06/09 02:59:07;;;;;;;9.20;8.38;;;15.90;99.90;;;;;;5074118;28;20287;-65
2023/06/09 03:01:36;;;;;;;9.68;8.20;;;15.80;99.90;;;;;;5074204;28;20597;-65
2023/06/09 03:04:06;;;;;;;9.43;8.52;;;15.80;99.90;;;;;;5073700;28;20201;-64
2023/06/09 03:06:36;;;;;;;9.07;8.30;;;15.80;99.90;;;;;;5082447;28;20203;-63
2023/06/09 03:09:04;;;;;;;9.45;8.50;;;15.80;99.90;;;;;;5094170;28;20223;-64
2023/06/09 03:11:32;;;;;;;10.30;8.80;;;15.80;99.90;;;;;;5094280;28;20260;-63
2023/06/09 03:14:00;;;;;;;9.75;8.43;;;15.80;99.90;;;;;;5094247;28;20628;-64
2023/06/09 03:16:28;;;;;;;9.93;8.73;;;15.70;99.90;;;;;;5093793;28;20297;-63
2023/06/09 03:18:56;;;;;;;12.25;8.52;;;15.70;99.90;;;;;;5094245;28;20207;-64
2023/06/09 03:21:24;;;;;;;9.48;8.50;;;15.60;99.90;;;;;;5094157;28;20307;-65
2023/06/09 03:23:53;;;;;;;9.65;8.90;;;15.70;99.90;;;;;;5094034;28;20238;-64
2023/06/09 03:26:23;;;;;;;9.10;8.40;;;15.60;99.90;;;;;;5093602;28;20770;-63
2023/06/09 03:28:51;;;;;;;9.77;8.77;;;15.60;99.90;;;;;;5093855;28;20224;-63
2023/06/09 03:31:20;;;;;;;9.18;8.30;;;15.60;99.90;;;;;;5093610;28;20942;-64
2023/06/09 03:33:48;;;;;;;9.05;8.25;;;15.60;99.90;;;;;;5093883;28;20311;-63
2023/06/09 03:36:16;;;;;;;9.00;8.20;;;15.60;99.90;;;;;;5093454;28;20640;-64
2023/06/09 03:38:44;;;;;;;9.38;8.57;;;15.60;99.90;;;;;;5093663;28;20239;-63
2023/06/09 03:41:13;;;;;;;9.68;8.52;;;15.60;99.90;;;;;;5093532;28;20742;-64
2023/06/09 03:43:41;;;;;;;8.88;8.05;;;15.50;99.90;;;;;;5079740;28;20200;-63
2023/06/09 03:46:09;;;;;;;9.15;8.43;;;15.50;99.90;;;;;;5073195;28;20213;-63
2023/06/09 03:48:37;;;;;;;9.80;8.15;;;15.50;99.90;;;;;;5073265;28;20209;-63
2023/06/09 03:51:05;;;;;;;8.50;7.80;;;15.60;99.90;;;;;;5073282;28;20259;-65
2023/06/09 03:53:33;;;;;;;9.07;8.20;;;15.60;99.90;;;;;;5072714;28;20237;-63
2023/06/09 03:56:00;;;;;;;10.25;8.60;;;15.60;99.90;;;;;;5073010;28;20292;-63
2023/06/09 03:58:30;;;;;;;9.00;7.85;;;15.60;99.90;;;;;;5074429;28;20201;-64
2023/06/09 04:00:58;;;;;;;9.15;8.25;;;15.60;99.90;;;;;;5084067;28;20225;-63
2023/06/09 04:03:25;;;;;;;8.57;7.88;;;15.70;99.90;;;;;;5088410;28;20634;-65
2023/06/09 04:05:53;;;;;;;8.25;7.45;;;15.70;99.90;;;;;;5092864;28;20214;-64
2023/06/09 04:08:21;;;;;;;9.38;8.02;;;15.70;99.90;;;;;;5093018;28;20295;-64
2023/06/09 04:10:49;;;;;;;11.70;8.55;;;15.80;99.90;;;;;;5092950;28;20672;-64
2023/06/09 04:13:17;;;;;;;11.40;8.25;;;15.80;99.90;;;;;;5073623;28;20228;-63
2023/06/09 04:15:46;;;;;;;9.32;8.43;;;15.80;99.90;;;;;;5080793;28;20648;-64
2023/06/09 04:18:15;;;;;;;9.23;8.10;;;15.80;99.90;;;;;;5081079;28;20205;-63
2023/06/09 04:20:43;;;;;;;8.82;7.65;;;15.80;99.90;;;;;;5080405;28;20596;-64
2023/06/09 04:23:11;;;;;;;8.73;7.57;;;15.90;99.90;;;;;;5074254;28;20254;-64
2023/06/09 04:25:40;;;;;;;8.95;7.85;;;15.90;99.90;;;;;;5089888;28;20227;-63
2023/06/09 04:28:08;;;;;;;7.57;6.88;;;15.90;99.90;;;;;;5092813;28;20232;-63
2023/06/09 04:30:38;;;;;;;8.13;7.32;;;16.00;99.90;;;;;;5092404;28;20707;-64
2023/06/09 04:33:07;;;;;;;8.68;7.88;;;16.00;99.90;;;;;;5079276;28;20668;-63
2023/06/09 04:35:35;;;;;;;8.07;7.47;;;16.10;99.90;;;;;;5070010;28;20250;-63
2023/06/09 04:38:03;;;;;;;7.57;6.97;;;16.10;99.90;;;;;;5073910;28;20250;-63
2023/06/09 04:40:31;;;;;;;8.30;7.50;;;16.10;99.90;;;;;;5083182;28;20680;-63
2023/06/09 04:43:01;;;;;;;7.50;6.90;;;16.10;99.90;;;;;;5084759;28;20236;-63
2023/06/09 04:45:33;;;;;;;8.30;7.60;;;16.10;99.90;;;;;;5071747;28;20665;-62
2023/06/09 04:48:01;;;;;;;7.68;6.97;;;16.10;99.90;;;;;;5072092;28;20692;-63
2023/06/09 04:50:32;;;;;;;9.57;7.78;;;16.20;99.90;;;;;;5071579;28;20220;-63
2023/06/09 04:53:03;;;;;;;10.05;7.43;;;16.30;99.90;;;;;;5072113;28;20244;-63
2023/06/09 04:55:32;;;;;;;10.68;7.25;;;16.30;99.90;;;;;;5071833;28;20204;-62
2023/06/09 04:58:00;;;;;;;9.65;6.97;;;16.30;99.90;;;;;;5072055;28;20620;-63
2023/06/09 05:00:28;;;;;;;7.80;7.03;;;16.40;99.90;;;;;;5071801;28;20657;-63
2023/06/09 05:02:57;;;;;;;9.45;7.57;;;16.50;99.90;;;;;;5071835;28;20204;-63
2023/06/09 05:05:25;;;;;;;7.55;6.95;;;16.50;99.90;;;;;;5071242;28;20204;-63
2023/06/09 05:07:55;;;;;;;9.55;7.47;;;16.50;99.90;;;;;;5072063;28;20208;-64
2023/06/09 05:10:23;;;;;;;8.43;7.15;;;16.60;99.90;;;;;;5071713;28;20216;-63
2023/06/09 05:12:50;;;;;;;9.10;7.13;;;16.60;99.90;;;;;;5071826;28;20711;-63
2023/06/09 05:15:18;;;;;;;10.55;6.70;;;16.70;99.90;;;;;;5071285;28;20652;-63
2023/06/09 05:17:46;;;;;;;7.88;7.28;;;16.70;99.90;;;;;;5071993;28;20212;-63
2023/06/09 05:20:14;;;;;;;6.70;6.20;;;16.80;99.90;;;;;;5071737;28;20227;-64
2023/06/09 05:22:42;;;;;;;7.47;6.85;;;16.80;99.90;;;;;;5071628;28;20205;-63
2023/06/09 05:25:13;;;;;;;9.85;6.93;;;16.90;99.90;;;;;;5071446;28;20289;-63
2023/06/09 05:27:44;;;;;;;8.38;6.75;;;16.90;99.90;;;;;;5071497;28;20695;-63
2023/06/09 05:30:12;;;;;;;7.97;6.50;;;17.00;99.90;;;;;;5071560;28;20792;-62
2023/06/09 05:32:40;;;;;;;7.07;6.45;;;17.00;99.90;;;;;;5066148;28;20225;-62
2023/06/09 05:35:08;;;;;;;6.78;6.28;;;17.10;99.90;;;;;;5058395;28;20258;-62
2023/06/09 05:37:38;;;;;;;6.75;6.13;;;17.10;99.90;;;;;;5056892;28;20198;-62
2023/06/09 05:40:08;;;;;;;7.20;6.50;;;17.20;99.90;;;;;;5060456;28;20761;-62
2023/06/09 05:42:37;;;;;;;6.93;6.18;;;17.30;99.90;;;;;;5055406;28;20924;-63
2023/06/09 05:45:06;;;;;;;9.18;6.38;;;17.40;99.90;;;;;;5071076;28;20277;-62
2023/06/09 05:47:34;;;;;;;6.85;5.97;;;17.40;99.90;;;;;;5071387;28;20651;-62
2023/06/09 05:50:02;;;;;;;6.18;5.68;;;17.50;99.90;;;;;;5071329;28;20707;-62
2023/06/09 05:52:30;;;;;;;7.93;6.30;;;17.50;99.90;;;;;;5091793;22;20255;-63
2023/06/09 05:54:58;;;;;;;7.53;6.25;;;17.60;99.90;;;;;;5091015;28;20235;-64
2023/06/09 05:57:29;;;;;;;6.78;6.20;;;17.70;99.90;;;;;;5091708;28;20276;-63
2023/06/09 05:59:59;;;;;;;6.18;4.93;;;17.80;99.90;;;;;;5091712;28;20203;-63
2023/06/09 06:02:27;;;;;;;5.60;5.18;;;17.80;99.90;;;;;;5091453;28;20815;-62
2023/06/09 06:04:55;;;;;;;6.22;5.15;;;17.90;99.90;;;;;;5091156;28;20250;-64
2023/06/09 06:07:23;;;;;;;5.93;5.43;;;18.00;99.90;;;;;;5091379;28;20646;-63
2023/06/09 06:09:51;;;;;;;4.40;4.00;;;18.10;99.90;;;;;;5091112;28;20199;-59
2023/06/09 06:12:19;;;;;;;4.70;4.13;;;18.20;99.90;;;;;;5091253;28;20812;-60
2023/06/09 06:14:47;;;;;;;8.20;4.55;;;18.50;99.90;;;;;;5091178;28;20204;-60
2023/06/09 06:17:16;;;;;;;7.53;4.85;;;18.80;99.90;;;;;;5094259;28;20283;-60
2023/06/09 06:19:44;;;;;;;5.22;4.65;;;19.00;99.90;;;;;;5094719;28;20667;-60
2023/06/09 06:22:12;;;;;;;6.35;5.10;;;19.10;99.90;;;;;;5095359;28;20282;-60
2023/06/09 06:24:40;;;;;;;7.20;5.03;;;19.30;99.90;;;;;;5094838;28;20249;-59
2023/06/09 06:27:08;;;;;;;9.30;5.05;;;19.50;99.90;;;;;;5095255;28;20231;-60
2023/06/09 06:29:38;;;;;;;5.55;5.07;;;19.50;99.90;;;;;;5091338;28;20236;-60
2023/06/09 06:32:08;;;;;;;6.47;5.30;;;19.60;99.90;;;;;;5087512;28;20232;-60
2023/06/09 06:34:37;;;;;;;14.32;8.40;;;19.70;99.90;;;;;;5091023;28;20200;-60
2023/06/09 06:37:05;;;;;;;12.75;6.88;;;19.70;99.90;;;;;;5095458;28;20235;-60
2023/06/09 06:39:33;;;;;;;7.75;5.70;;;19.80;99.90;;;;;;5095164;28;20212;-60
2023/06/09 06:42:01;;;;;;;11.40;6.78;;;19.80;99.90;;;;;;5094955;28;20263;-60
2023/06/09 06:44:29;;;;;;;8.80;6.20;;;19.90;99.90;;;;;;5094814;28;20215;-60
2023/06/09 06:46:57;;;;;;;28.60;11.38;;;20.00;99.90;;;;;;5094701;28;20235;-60
2023/06/09 06:49:25;;;;;;;9.43;6.40;;;20.00;99.90;;;;;;5089181;28;20208;-59
2023/06/09 06:51:54;;;;;;;12.50;6.82;;;20.00;99.90;;;;;;5089090;28;20314;-59
2023/06/09 06:54:22;;;;;;;7.88;5.80;;;20.10;99.90;;;;;;5085184;28;20205;-60
2023/06/09 06:56:50;;;;;;;6.35;5.15;;;20.20;99.90;;;;;;5083555;28;20247;-60
2023/06/09 06:59:18;;;;;;;16.08;6.70;;;20.20;99.90;;;;;;5086025;28;20208;-60
2023/06/09 07:01:47;;;;;;;6.28;5.68;;;20.20;99.90;;;;;;5078722;28;20223;-60
2023/06/09 07:04:15;;;;;;;6.03;5.03;;;20.30;99.90;;;;;;5083744;28;20241;-60
2023/06/09 07:06:43;;;;;;;5.80;5.30;;;20.40;99.90;;;;;;5077688;28;20623;-60
2023/06/09 07:09:12;;;;;;;8.60;5.82;;;20.40;99.90;;;;;;5087667;28;20578;-60
2023/06/09 07:11:43;;;;;;;5.95;5.13;;;20.50;99.90;;;;;;5084713;28;20224;-60
2023/06/09 07:14:11;;;;;;;5.93;4.88;;;20.50;99.90;;;;;;5088181;28;20204;-59
2023/06/09 07:16:42;;;;;;;9.43;5.03;;;20.60;99.90;;;;;;5085152;28;20226;-61
2023/06/09 07:19:11;;;;;;;5.07;4.78;;;20.60;99.90;;;;;;5089393;28;20300;-60
2023/06/09 07:21:38;;;;;;;5.15;4.60;;;20.70;99.90;;;;;;5088078;28;20298;-60
2023/06/09 07:24:06;;;;;;;4.68;4.38;;;20.70;99.90;;;;;;5091687;28;20628;-60
2023/06/09 07:26:36;;;;;;;6.13;5.28;;;20.80;99.90;;;;;;5082813;28;20211;-60
2023/06/09 07:29:04;;;;;;;5.50;4.88;;;20.80;99.90;;;;;;5091600;28;20242;-60
2023/06/09 07:31:32;;;;;;;5.65;5.25;;;20.90;99.90;;;;;;5084336;28;20232;-60
2023/06/09 07:34:00;;;;;;;10.10;5.95;;;21.00;99.90;;;;;;5084833;28;20420;-60
2023/06/09 07:36:29;;;;;;;16.00;9.05;;;21.10;99.90;;;;;;5085526;28;20294;-60
2023/06/09 07:38:57;;;;;;;13.48;7.03;;;21.10;99.90;;;;;;5085133;28;20204;-60
2023/06/09 07:41:28;;;;;;;20.75;10.70;;;21.20;99.90;;;;;;5086228;28;20222;-60
2023/06/09 07:43:57;;;;;;;16.42;8.85;;;21.20;99.90;;;;;;5083021;28;20257;-60
2023/06/09 07:46:25;;;;;;;4.95;4.57;;;21.30;99.90;;;;;;5087570;28;20253;-59
2023/06/09 07:48:53;;;;;;;5.10;4.60;;;21.40;99.90;;;;;;5080606;28;20223;-59
2023/06/09 07:51:21;;;;;;;5.35;4.85;;;21.50;99.90;;;;;;5084107;28;20255;-59
2023/06/09 07:53:49;;;;;;;5.63;4.60;;;21.50;99.90;;;;;;5088785;28;20226;-63
2023/06/09 07:56:17;;;;;;;5.30;4.72;;;21.60;99.90;;;;;;5087050;28;20231;-63
2023/06/09 07:58:45;;;;;;;4.20;3.95;;;21.70;99.90;;;;;;5084791;28;20208;-62
2023/06/09 08:01:14;;;;;;;5.20;4.80;;;21.80;99.90;;;;;;5085211;28;20647;-63
2023/06/09 08:03:42;;;;;;;4.75;4.35;;;21.90;99.90;;;;;;5079279;28;20230;-63
2023/06/09 08:06:10;;;;;;;4.68;4.35;;;22.00;99.90;;;;;;5082192;28;20196;-63
2023/06/09 08:08:38;;;;;;;6.40;4.57;;;22.10;99.90;;;;;;5091358;28;20227;-63
2023/06/09 08:11:06;;;;;;;5.50;4.55;;;22.20;99.90;;;;;;5088242;28;20252;-63
2023/06/09 08:13:34;;;;;;;4.97;4.40;;;22.30;99.90;;;;;;5090174;28;20200;-63
2023/06/09 08:16:02;;;;;;;4.30;4.00;;;22.50;99.90;;;;;;5092672;28;20737;-64
2023/06/09 08:18:31;;;;;;;5.68;4.00;;;22.60;99.90;;;;;;5092189;28;20196;-63
2023/06/09 08:20:59;;;;;;;4.15;3.75;;;22.70;99.90;;;;;;5089636;28;20237;-62
2023/06/09 08:23:27;;;;;;;4.15;3.88;;;22.70;99.90;;;;;;5092377;28;20849;-63
2023/06/09 08:25:55;;;;;;;4.15;3.90;;;22.80;99.90;;;;;;5092054;28;20203;-62
2023/06/09 08:28:23;;;;;;;6.15;3.92;;;22.90;99.90;;;;;;5091445;28;20199;-63
2023/06/09 08:30:51;;;;;;;5.15;4.38;;;22.90;99.90;;;;;;5083970;28;20205;-63
2023/06/09 08:33:19;;;;;;;5.32;4.25;;;23.00;99.90;;;;;;5083402;28;20224;-63
2023/06/09 08:35:48;;;;;;;4.53;4.22;;;23.10;99.90;;;;;;5081197;28;20212;-62
2023/06/09 08:38:16;;;;;;;4.63;4.22;;;23.30;99.90;;;;;;5083262;28;20208;-62
2023/06/09 08:40:44;;;;;;;4.28;3.90;;;23.40;99.90;;;;;;5082614;28;20512;-62
2023/06/09 08:43:12;;;;;;;4.50;4.18;;;23.40;99.90;;;;;;5080520;28;20230;-62
2023/06/09 08:45:40;;;;;;;4.60;4.20;;;23.50;99.90;;;;;;5081394;28;20227;-63
2023/06/09 08:48:08;;;;;;;5.78;3.97;;;23.60;99.90;;;;;;5081125;28;20270;-63
2023/06/09 08:50:41;;;;;;;4.63;4.18;;;23.70;99.90;;;;;;5084168;28;20635;-61
2023/06/09 08:53:10;;;;;;;6.82;4.03;;;23.80;99.90;;;;;;5084896;28;20227;-63
2023/06/09 08:55:38;;;;;;;3.80;3.50;;;24.00;99.90;;;;;;5086415;28;20279;-62
2023/06/09 08:58:06;;;;;;;4.53;4.15;;;24.10;99.90;;;;;;5080412;28;20200;-62
2023/06/09 09:00:34;;;;;;;4.40;3.95;;;24.30;99.90;;;;;;5071501;28;20269;-63
2023/06/09 09:03:02;;;;;;;4.07;3.88;;;24.50;99.90;;;;;;5082408;28;20216;-63
2023/06/09 09:05:31;;;;;;;4.55;4.03;;;24.60;99.90;;;;;;5085962;28;20204;-63
2023/06/09 09:07:59;;;;;;;4.97;4.57;;;24.80;99.90;;;;;;5092171;28;20257;-63
2023/06/09 09:10:28;;;;;;;5.47;4.00;;;24.80;99.90;;;;;;5071860;28;20287;-63
2023/06/09 09:12:58;;;;;;;3.50;3.20;;;24.90;99.90;;;;;;5085521;28;20266;-63
2023/06/09 09:15:26;;;;;;;4.90;3.25;;;25.00;99.90;;;;;;5091252;28;20210;-63
2023/06/09 09:17:54;;;;;;;3.75;3.55;;;25.10;99.90;;;;;;5088833;28;20283;-63
2023/06/09 09:20:31;;;;;;;3.75;3.55;;;25.10;99.90;;;;;;5091980;28;20261;-63
2023/06/09 09:22:58;;;;;;;5.03;3.63;;;25.20;99.90;;;;;;5090374;28;20220;-62
2023/06/09 09:25:28;;;;;;;4.05;3.75;;;25.30;99.90;;;;;;5090822;28;20212;-63
2023/06/09 09:28:01;;;;;;;3.92;3.72;;;25.50;99.90;;;;;;5090963;28;20250;-63
2023/06/09 09:30:46;;;;;;;3.25;3.15;;;25.60;99.90;;;;;;5091517;28;20861;-64
2023/06/09 09:33:15;;;;;;;4.07;3.67;;;25.70;99.90;;;;;;5091532;28;20228;-63
2023/06/09 09:35:45;;;;;;;3.42;3.17;;;25.80;99.90;;;;;;5090649;28;20204;-63
2023/06/09 09:38:14;;;;;;;5.57;3.40;;;25.90;99.90;;;;;;5091238;28;20199;-63
2023/06/09 09:40:44;;;;;;;3.97;3.78;;;26.00;99.90;;;;;;5092052;28;20243;-63
2023/06/09 09:43:12;;;;;;;4.15;3.78;;;26.10;99.90;;;;;;5091709;28;20216;-63
2023/06/09 09:45:42;;;;;;;6.43;3.65;;;26.40;99.90;;;;;;5091276;28;20208;-63
2023/06/09 09:48:11;;;;;;;5.00;4.15;;;26.60;99.90;;;;;;5090888;28;20386;-63
2023/06/09 09:50:39;;;;;;;4.13;3.60;;;26.80;99.90;;;;;;5082888;28;20207;-63
2023/06/09 09:53:08;;;;;;;4.30;3.97;;;27.00;99.90;;;;;;5075527;28;20275;-64
2023/06/09 09:55:37;;;;;;;4.15;3.95;;;27.20;99.90;;;;;;5075137;28;20204;-64
2023/06/09 09:58:07;;;;;;;4.45;3.35;;;27.40;99.90;;;;;;5075567;28;20291;-64
2023/06/09 10:00:37;;;;;;;4.25;3.95;;;27.50;99.90;;;;;;5075547;28;20204;-63
2023/06/09 10:03:09;;;;;;;5.50;3.85;;;27.60;99.90;;;;;;5075098;28;20606;-63
2023/06/09 10:05:39;;;;;;;4.05;3.75;;;27.60;99.90;;;;;;5075111;28;20330;-63
2023/06/09 10:08:07;;;;;;;4.93;3.47;;;27.70;99.90;;;;;;5075336;28;20218;-63
2023/06/09 10:10:35;;;;;;;4.30;3.90;;;27.80;99.90;;;;;;5075156;28;20204;-63
2023/06/09 10:13:03;;;;;;;4.05;3.78;;;28.00;99.90;;;;;;5074907;28;20221;-63
2023/06/09 10:15:35;;;;;;;4.07;3.88;;;28.10;99.90;;;;;;5074805;28;20294;-64
2023/06/09 10:18:03;;;;;;;4.18;3.80;;;28.30;99.90;;;;;;5075210;28;20291;-63
2023/06/09 10:20:31;;;;;;;4.05;3.75;;;28.40;99.90;;;;;;5074639;28;20204;-63
2023/06/09 10:22:59;;;;;;;5.05;3.85;;;28.50;99.90;;;;;;5074033;28;20225;-62
2023/06/09 10:25:27;;;;;;;4.50;4.10;;;28.40;99.90;;;;;;5074544;28;20204;-61
2023/06/09 10:27:55;;;;;;;5.13;3.40;;;28.40;99.90;;;;;;5074195;28;20237;-63
2023/06/09 10:30:23;;;;;;;4.72;4.35;;;28.80;99.90;;;;;;5074624;28;20262;-64
2023/06/09 10:33:04;;;;;;;4.22;3.45;;;29.00;99.90;;;;;;5074748;28;20274;-64
2023/06/09 10:35:33;;;;;;;4.57;3.50;;;29.00;99.90;;;;;;5073660;28;20284;-64
2023/06/09 10:38:21;;;;;;;5.53;4.03;;;29.00;99.90;;;;;;5074399;28;20676;-63
2023/06/09 10:40:51;;;;;;;4.25;3.85;;;29.20;99.90;;;;;;5074072;28;20240;-64
2023/06/09 10:43:40;;;;;;;3.97;3.67;;;29.50;99.90;;;;;;5085012;28;20216;-64
2023/06/09 10:46:12;;;;;;;3.88;3.67;;;29.90;99.90;;;;;;5092430;28;20282;-64
2023/06/09 10:48:45;;;;;;;4.63;3.85;;;30.30;99.90;;;;;;5087801;28;20203;-64
2023/06/09 10:51:39;;;;;;;4.38;4.07;;;30.50;99.90;;;;;;5089468;28;20241;-64
2023/06/09 10:54:24;;;;;;;3.85;3.55;;;30.60;99.90;;;;;;5082789;28;20232;-65
2023/06/09 10:56:54;;;;;;;4.25;3.70;;;30.80;99.90;;;;;;5088208;28;20204;-64
2023/06/09 11:00:16;;;;;;;3.95;3.65;;;30.90;99.90;;;;;;5085980;28;20813;-64
2023/06/09 11:02:51;;;;;;;4.82;3.60;;;30.50;99.10;;;;;;5093263;28;20592;-63
2023/06/09 11:05:21;;;;;;;3.40;3.30;;;30.60;98.90;;;;;;5094014;28;20203;-65
2023/06/09 11:07:50;;;;;;;2.97;2.88;;;30.90;99.50;;;;;;5094467;28;20204;-64
2023/06/09 11:10:26;;;;;;;3.63;3.42;;;31.20;95.70;;;;;;5092530;28;20326;-64
2023/06/09 11:12:55;;;;;;;3.42;3.22;;;31.10;96.50;;;;;;5088107;28;20289;-64
2023/06/09 11:15:23;;;;;;;4.28;3.35;;;31.30;96.20;;;;;;5081840;28;20209;-63
2023/06/09 11:17:52;;;;;;;3.03;2.90;;;31.50;95.70;;;;;;5073786;28;20219;-64
2023/06/09 11:20:22;;;;;;;3.35;3.00;;;31.40;94.80;;;;;;5074039;28;20208;-64
2023/06/09 11:23:00;;;;;;;3.40;3.20;;;31.20;92.90;;;;;;5085220;28;20220;-65
2023/06/09 11:25:35;;;;;;;6.47;3.33;;;31.00;93.60;;;;;;5093827;28;20302;-64
2023/06/09 11:28:23;;;;;;;3.20;3.00;;;31.10;95.30;;;;;;5088790;28;20292;-64
2023/06/09 11:31:15;;;;;;;3.00;2.80;;;31.20;94.40;;;;;;5084714;28;20239;-64
2023/06/09 11:33:45;;;;;;;3.22;2.95;;;31.50;94.30;;;;;;5059090;28;20228;-64
2023/06/09 11:36:22;;;;;;;3.10;2.90;;;31.80;92.20;;;;;;5093383;28;20210;-64
2023/06/09 11:38:50;;;;;;;3.63;3.33;;;31.70;92.00;;;;;;5093440;28;20610;-65
2023/06/09 11:41:25;;;;;;;3.55;3.35;;;32.00;92.00;;;;;;5093443;28;20663;-65
2023/06/09 11:43:54;;;;;;;8.40;3.25;;;32.30;90.40;;;;;;5093351;28;20343;-65
2023/06/09 11:46:22;;;;;;;3.33;2.95;;;32.40;90.40;;;;;;5092939;28;20204;-63
2023/06/09 11:49:04;;;;;;;3.38;3.20;;;32.30;86.60;;;;;;5092375;28;20204;-64
2023/06/09 11:51:59;;;;;;;4.88;3.05;;;32.40;86.30;;;;;;5107923;22;20326;-62
2023/06/09 11:54:54;;;;;;;3.38;3.13;;;32.70;86.70;;;;;;5071508;28;20225;-60
2023/06/09 11:57:22;;;;;;;3.03;2.92;;;33.00;83.30;;;;;;5038732;28;20205;-59
2023/06/09 11:59:50;;;;;;;5.85;3.40;;;33.10;88.20;;;;;;5079058;28;20200;-59
2023/06/09 12:02:19;;;;;;;5.05;3.38;;;33.00;85.00;;;;;;5075626;28;20304;-60
2023/06/09 12:04:49;;;;;;;3.53;3.28;;;32.90;81.20;;;;;;5072596;28;20192;-60
2023/06/09 12:07:18;;;;;;;3.40;3.20;;;32.70;83.30;;;;;;5079122;28;20612;-60
2023/06/09 12:09:54;;;;;;;5.20;3.42;;;32.90;83.10;;;;;;5074762;28;20230;-60
2023/06/09 12:12:22;;;;;;;5.30;3.35;;;33.00;81.30;;;;;;5080859;28;20221;-60
2023/06/09 12:14:50;;;;;;;4.10;3.70;;;33.00;83.00;;;;;;5082608;28;20738;-59
2023/06/09 12:17:18;;;;;;;3.88;3.58;;;33.30;82.70;;;;;;5081818;28;20199;-60
2023/06/09 12:19:48;;;;;;;4.40;3.70;;;33.70;83.50;;;;;;5080015;28;20286;-60
2023/06/09 12:22:18;;;;;;;3.60;3.25;;;33.70;80.80;;;;;;5078063;28;20690;-60
2023/06/09 12:24:46;;;;;;;6.25;3.65;;;33.90;81.40;;;;;;5072650;28;20367;-60
2023/06/09 12:27:14;;;;;;;4.40;3.83;;;34.00;79.80;;;;;;5080112;28;20730;-61
2023/06/09 12:29:42;;;;;;;7.85;4.10;;;34.20;80.60;;;;;;5084288;28;20265;-60
2023/06/09 12:32:10;;;;;;;4.03;3.75;;;34.00;76.80;;;;;;5072841;28;20307;-60
2023/06/09 12:34:39;;;;;;;4.20;3.83;;;33.90;78.70;;;;;;5076627;28;20217;-60
2023/06/09 12:37:07;;;;;;;3.45;3.25;;;33.70;78.00;;;;;;5082680;28;20207;-61
2023/06/09 12:39:36;;;;;;;5.65;3.80;;;34.00;79.30;;;;;;5083293;28;20203;-60
2023/06/09 12:42:12;;;;;;;3.95;3.65;;;34.00;78.80;;;;;;5080019;28;20224;-61
2023/06/09 12:44:40;;;;;;;4.68;3.83;;;34.20;79.90;;;;;;5083783;28;20550;-61
2023/06/09 12:47:14;;;;;;;5.00;3.28;;;34.30;78.60;;;;;;5083562;28;20200;-61
2023/06/09 12:49:44;;;;;;;6.25;3.78;;;34.30;78.50;;;;;;5082737;28;20203;-61
2023/06/09 12:52:12;;;;;;;4.30;3.95;;;34.40;77.30;;;;;;5074489;28;20289;-61
2023/06/09 12:54:41;;;;;;;3.80;3.60;;;34.20;75.70;;;;;;5080693;28;20267;-59
2023/06/09 12:57:16;;;;;;;4.72;3.95;;;34.30;75.10;;;;;;5071527;28;20203;-60
2023/06/09 12:59:44;;;;;;;5.03;3.85;;;34.10;76.10;;;;;;5081872;28;20428;-61